sensor_id;sensor_type;location;lat;lon;timestamp;P1;durP1;ratioP1;P2;durP2;ratioP2
317;SDS011;146;53.448;10.228;2022-08-21T00:01:21;4.20;;;3.90;;
317;SDS011;146;53.448;10.228;2022-08-21T00:03:49;5.93;;;4.57;;
317;SDS011;146;53.448;10.228;2022-08-21T00:06:17;4.90;;;4.50;;
317;SDS011;146;53.448;10.228;2022-08-21T00:08:45;7.93;;;4.50;;
317;SDS011;146;53.448;10.228;2022-08-21T00:11:13;5.40;;;3.77;;
317;SDS011;146;53.448;10.228;2022-08-21T00:13:39;3.70;;;3.50;;
317;SDS011;146;53.448;10.228;2022-08-21T00:16:06;4.70;;;4.30;;
317;SDS011;146;53.448;10.228;2022-08-21T00:18:33;4.87;;;4.47;;
317;SDS011;146;53.448;10.228;2022-08-21T00:21:00;4.90;;;4.33;;
317;SDS011;146;53.448;10.228;2022-08-21T00:23:27;4.57;;;4.17;;
317;SDS011;146;53.448;10.228;2022-08-21T00:25:56;4.60;;;4.20;;
317;SDS011;146;53.448;10.228;2022-08-21T00:28:23;4.93;;;4.43;;
317;SDS011;146;53.448;10.228;2022-08-21T00:30:49;5.97;;;5.47;;
317;SDS011;146;53.448;10.228;2022-08-21T00:33:16;5.37;;;4.87;;
317;SDS011;146;53.448;10.228;2022-08-21T00:35:43;5.53;;;4.97;;
317;SDS011;146;53.448;10.228;2022-08-21T00:38:10;4.70;;;4.17;;
317;SDS011;146;53.448;10.228;2022-08-21T00:40:38;4.27;;;3.90;;
317;SDS011;146;53.448;10.228;2022-08-21T00:43:09;4.37;;;4.03;;
317;SDS011;146;53.448;10.228;2022-08-21T00:45:38;4.97;;;4.57;;
317;SDS011;146;53.448;10.228;2022-08-21T00:48:05;5.20;;;4.80;;
317;SDS011;146;53.448;10.228;2022-08-21T00:50:33;4.17;;;3.87;;
317;SDS011;146;53.448;10.228;2022-08-21T00:53:04;3.80;;;3.50;;
317;SDS011;146;53.448;10.228;2022-08-21T00:55:33;4.20;;;3.90;;
317;SDS011;146;53.448;10.228;2022-08-21T00:58:02;4.83;;;4.43;;
317;SDS011;146;53.448;10.228;2022-08-21T01:00:34;5.20;;;4.70;;
317;SDS011;146;53.448;10.228;2022-08-21T01:03:06;4.87;;;4.53;;
317;SDS011;146;53.448;10.228;2022-08-21T01:05:35;4.17;;;3.87;;
317;SDS011;146;53.448;10.228;2022-08-21T01:08:02;4.43;;;4.13;;
317;SDS011;146;53.448;10.228;2022-08-21T01:10:30;4.43;;;4.13;;
317;SDS011;146;53.448;10.228;2022-08-21T01:12:58;5.10;;;3.90;;
317;SDS011;146;53.448;10.228;2022-08-21T01:15:27;4.27;;;3.97;;
317;SDS011;146;53.448;10.228;2022-08-21T01:17:59;4.67;;;4.27;;
317;SDS011;146;53.448;10.228;2022-08-21T01:20:27;4.73;;;4.33;;
317;SDS011;146;53.448;10.228;2022-08-21T01:22:55;4.50;;;4.10;;
317;SDS011;146;53.448;10.228;2022-08-21T01:25:22;4.73;;;4.23;;
317;SDS011;146;53.448;10.228;2022-08-21T01:27:49;4.63;;;4.23;;
317;SDS011;146;53.448;10.228;2022-08-21T01:30:17;4.53;;;4.13;;
317;SDS011;146;53.448;10.228;2022-08-21T01:32:45;5.13;;;4.63;;
317;SDS011;146;53.448;10.228;2022-08-21T01:35:15;4.53;;;4.23;;
317;SDS011;146;53.448;10.228;2022-08-21T01:37:43;5.30;;;4.53;;
317;SDS011;146;53.448;10.228;2022-08-21T01:40:12;4.53;;;4.23;;
317;SDS011;146;53.448;10.228;2022-08-21T01:42:40;4.43;;;4.03;;
317;SDS011;146;53.448;10.228;2022-08-21T01:45:08;3.90;;;3.70;;
317;SDS011;146;53.448;10.228;2022-08-21T01:47:35;4.33;;;4.03;;
317;SDS011;146;53.448;10.228;2022-08-21T01:50:03;4.37;;;3.83;;
317;SDS011;146;53.448;10.228;2022-08-21T01:52:31;4.80;;;4.30;;
317;SDS011;146;53.448;10.228;2022-08-21T01:54:57;3.57;;;3.27;;
317;SDS011;146;53.448;10.228;2022-08-21T01:57:26;4.83;;;3.80;;
317;SDS011;146;53.448;10.228;2022-08-21T01:59:53;4.13;;;3.80;;
317;SDS011;146;53.448;10.228;2022-08-21T02:02:20;4.67;;;3.63;;
317;SDS011;146;53.448;10.228;2022-08-21T02:04:46;4.03;;;3.63;;
317;SDS011;146;53.448;10.228;2022-08-21T02:07:13;6.70;;;3.97;;
317;SDS011;146;53.448;10.228;2022-08-21T02:09:40;4.03;;;3.73;;
317;SDS011;146;53.448;10.228;2022-08-21T02:12:09;3.50;;;3.30;;
317;SDS011;146;53.448;10.228;2022-08-21T02:14:38;3.23;;;3.03;;
317;SDS011;146;53.448;10.228;2022-08-21T02:17:05;4.03;;;3.73;;
317;SDS011;146;53.448;10.228;2022-08-21T02:19:31;3.77;;;3.47;;
317;SDS011;146;53.448;10.228;2022-08-21T02:21:58;3.50;;;3.20;;
317;SDS011;146;53.448;10.228;2022-08-21T02:24:25;4.17;;;3.60;;
317;SDS011;146;53.448;10.228;2022-08-21T02:26:52;3.97;;;3.50;;
317;SDS011;146;53.448;10.228;2022-08-21T02:29:18;3.50;;;3.20;;
317;SDS011;146;53.448;10.228;2022-08-21T02:31:47;3.70;;;3.43;;
317;SDS011;146;53.448;10.228;2022-08-21T02:34:13;3.90;;;3.50;;
317;SDS011;146;53.448;10.228;2022-08-21T02:36:40;3.60;;;3.40;;
317;SDS011;146;53.448;10.228;2022-08-21T02:39:07;3.80;;;3.60;;
317;SDS011;146;53.448;10.228;2022-08-21T02:41:34;3.57;;;3.27;;
317;SDS011;146;53.448;10.228;2022-08-21T02:44:00;4.90;;;3.10;;
317;SDS011;146;53.448;10.228;2022-08-21T02:46:27;4.57;;;3.77;;
317;SDS011;146;53.448;10.228;2022-08-21T02:48:56;4.37;;;3.67;;
317;SDS011;146;53.448;10.228;2022-08-21T02:51:23;3.97;;;3.63;;
317;SDS011;146;53.448;10.228;2022-08-21T02:53:51;3.90;;;3.60;;
317;SDS011;146;53.448;10.228;2022-08-21T02:56:19;3.83;;;3.63;;
317;SDS011;146;53.448;10.228;2022-08-21T02:58:48;5.00;;;3.87;;
317;SDS011;146;53.448;10.228;2022-08-21T03:01:17;3.67;;;3.33;;
317;SDS011;146;53.448;10.228;2022-08-21T03:03:45;3.83;;;3.43;;
317;SDS011;146;53.448;10.228;2022-08-21T03:06:16;4.23;;;3.90;;
317;SDS011;146;53.448;10.228;2022-08-21T03:08:45;4.37;;;3.70;;
317;SDS011;146;53.448;10.228;2022-08-21T03:11:12;4.40;;;4.00;;
317;SDS011;146;53.448;10.228;2022-08-21T03:13:39;4.10;;;3.80;;
317;SDS011;146;53.448;10.228;2022-08-21T03:16:06;4.50;;;4.10;;
317;SDS011;146;53.448;10.228;2022-08-21T03:18:33;6.27;;;4.50;;
317;SDS011;146;53.448;10.228;2022-08-21T03:21:01;4.20;;;3.80;;
317;SDS011;146;53.448;10.228;2022-08-21T03:23:29;4.73;;;4.33;;
317;SDS011;146;53.448;10.228;2022-08-21T03:25:57;3.87;;;3.57;;
317;SDS011;146;53.448;10.228;2022-08-21T03:28:24;4.50;;;4.10;;
317;SDS011;146;53.448;10.228;2022-08-21T03:30:51;5.07;;;4.40;;
317;SDS011;146;53.448;10.228;2022-08-21T03:33:19;4.10;;;3.80;;
317;SDS011;146;53.448;10.228;2022-08-21T03:35:47;8.80;;;4.30;;
317;SDS011;146;53.448;10.228;2022-08-21T03:38:20;7.80;;;4.80;;
317;SDS011;146;53.448;10.228;2022-08-21T03:40:49;4.70;;;4.27;;
317;SDS011;146;53.448;10.228;2022-08-21T03:43:15;4.00;;;3.70;;
317;SDS011;146;53.448;10.228;2022-08-21T03:45:42;4.43;;;4.00;;
317;SDS011;146;53.448;10.228;2022-08-21T03:48:09;4.10;;;3.80;;
317;SDS011;146;53.448;10.228;2022-08-21T03:50:37;4.67;;;4.30;;
317;SDS011;146;53.448;10.228;2022-08-21T03:53:05;4.23;;;3.87;;
317;SDS011;146;53.448;10.228;2022-08-21T03:55:32;4.43;;;4.03;;
317;SDS011;146;53.448;10.228;2022-08-21T03:58:00;4.20;;;3.77;;
317;SDS011;146;53.448;10.228;2022-08-21T04:00:27;4.30;;;3.97;;
317;SDS011;146;53.448;10.228;2022-08-21T04:02:54;3.63;;;3.40;;
317;SDS011;146;53.448;10.228;2022-08-21T04:05:21;5.43;;;3.57;;
317;SDS011;146;53.448;10.228;2022-08-21T04:07:53;4.70;;;4.30;;
317;SDS011;146;53.448;10.228;2022-08-21T04:10:21;3.87;;;3.57;;
317;SDS011;146;53.448;10.228;2022-08-21T04:12:50;3.30;;;3.10;;
317;SDS011;146;53.448;10.228;2022-08-21T04:15:19;3.70;;;3.50;;
317;SDS011;146;53.448;10.228;2022-08-21T04:17:47;4.20;;;3.80;;
317;SDS011;146;53.448;10.228;2022-08-21T04:20:14;4.33;;;4.00;;
317;SDS011;146;53.448;10.228;2022-08-21T04:22:41;3.90;;;3.60;;
317;SDS011;146;53.448;10.228;2022-08-21T04:25:09;4.30;;;3.23;;
317;SDS011;146;53.448;10.228;2022-08-21T04:27:36;3.97;;;3.70;;
317;SDS011;146;53.448;10.228;2022-08-21T04:30:04;3.77;;;3.47;;
317;SDS011;146;53.448;10.228;2022-08-21T04:32:33;3.90;;;3.60;;
317;SDS011;146;53.448;10.228;2022-08-21T04:35:00;5.47;;;4.17;;
317;SDS011;146;53.448;10.228;2022-08-21T04:37:30;3.80;;;3.60;;
317;SDS011;146;53.448;10.228;2022-08-21T04:39:56;4.47;;;4.07;;
317;SDS011;146;53.448;10.228;2022-08-21T04:42:25;4.03;;;3.73;;
317;SDS011;146;53.448;10.228;2022-08-21T04:44:53;4.53;;;4.17;;
317;SDS011;146;53.448;10.228;2022-08-21T04:47:21;4.73;;;4.33;;
317;SDS011;146;53.448;10.228;2022-08-21T04:49:50;4.63;;;4.33;;
317;SDS011;146;53.448;10.228;2022-08-21T04:52:17;4.17;;;3.87;;
317;SDS011;146;53.448;10.228;2022-08-21T04:54:48;5.13;;;4.67;;
317;SDS011;146;53.448;10.228;2022-08-21T04:57:17;4.80;;;4.50;;
317;SDS011;146;53.448;10.228;2022-08-21T04:59:46;5.23;;;4.77;;
317;SDS011;146;53.448;10.228;2022-08-21T05:02:16;5.20;;;4.80;;
317;SDS011;146;53.448;10.228;2022-08-21T05:04:45;5.67;;;5.07;;
317;SDS011;146;53.448;10.228;2022-08-21T05:07:16;4.57;;;4.27;;
317;SDS011;146;53.448;10.228;2022-08-21T05:09:46;4.63;;;4.33;;
317;SDS011;146;53.448;10.228;2022-08-21T05:12:13;4.73;;;4.23;;
317;SDS011;146;53.448;10.228;2022-08-21T05:14:40;4.40;;;4.20;;
317;SDS011;146;53.448;10.228;2022-08-21T05:17:07;3.73;;;3.43;;
317;SDS011;146;53.448;10.228;2022-08-21T05:19:34;5.23;;;4.73;;
317;SDS011;146;53.448;10.228;2022-08-21T05:22:02;4.67;;;4.30;;
317;SDS011;146;53.448;10.228;2022-08-21T05:24:30;4.17;;;3.87;;
317;SDS011;146;53.448;10.228;2022-08-21T05:26:57;4.13;;;3.87;;
317;SDS011;146;53.448;10.228;2022-08-21T05:29:24;4.37;;;4.03;;
317;SDS011;146;53.448;10.228;2022-08-21T05:31:51;6.37;;;4.07;;
317;SDS011;146;53.448;10.228;2022-08-21T05:34:19;5.33;;;4.60;;
317;SDS011;146;53.448;10.228;2022-08-21T05:36:48;5.30;;;4.63;;
317;SDS011;146;53.448;10.228;2022-08-21T05:39:15;5.70;;;4.20;;
317;SDS011;146;53.448;10.228;2022-08-21T05:41:43;5.07;;;4.50;;
317;SDS011;146;53.448;10.228;2022-08-21T05:44:10;5.23;;;4.80;;
317;SDS011;146;53.448;10.228;2022-08-21T05:46:37;4.47;;;4.27;;
317;SDS011;146;53.448;10.228;2022-08-21T05:49:04;5.77;;;5.00;;
317;SDS011;146;53.448;10.228;2022-08-21T05:51:30;4.67;;;4.03;;
317;SDS011;146;53.448;10.228;2022-08-21T05:53:57;4.47;;;4.17;;
317;SDS011;146;53.448;10.228;2022-08-21T05:56:24;4.27;;;3.87;;
317;SDS011;146;53.448;10.228;2022-08-21T05:58:52;5.63;;;5.10;;
317;SDS011;146;53.448;10.228;2022-08-21T06:01:20;5.13;;;3.73;;
317;SDS011;146;53.448;10.228;2022-08-21T06:03:47;4.83;;;4.43;;
317;SDS011;146;53.448;10.228;2022-08-21T06:06:14;4.17;;;3.87;;
317;SDS011;146;53.448;10.228;2022-08-21T06:08:41;4.70;;;4.20;;
317;SDS011;146;53.448;10.228;2022-08-21T06:11:08;4.83;;;4.40;;
317;SDS011;146;53.448;10.228;2022-08-21T06:13:38;4.30;;;3.97;;
317;SDS011;146;53.448;10.228;2022-08-21T06:16:08;5.10;;;4.70;;
317;SDS011;146;53.448;10.228;2022-08-21T06:18:37;4.70;;;4.30;;
317;SDS011;146;53.448;10.228;2022-08-21T06:21:04;4.83;;;4.33;;
317;SDS011;146;53.448;10.228;2022-08-21T06:23:32;4.17;;;3.87;;
317;SDS011;146;53.448;10.228;2022-08-21T06:26:00;3.93;;;3.70;;
317;SDS011;146;53.448;10.228;2022-08-21T06:28:27;4.23;;;3.93;;
317;SDS011;146;53.448;10.228;2022-08-21T06:30:54;6.37;;;4.33;;
317;SDS011;146;53.448;10.228;2022-08-21T06:33:22;4.13;;;3.83;;
317;SDS011;146;53.448;10.228;2022-08-21T06:35:50;4.13;;;3.83;;
317;SDS011;146;53.448;10.228;2022-08-21T06:38:16;3.87;;;3.57;;
317;SDS011;146;53.448;10.228;2022-08-21T06:40:44;4.17;;;3.80;;
317;SDS011;146;53.448;10.228;2022-08-21T06:43:12;3.70;;;3.40;;
317;SDS011;146;53.448;10.228;2022-08-21T06:45:40;4.27;;;3.87;;
317;SDS011;146;53.448;10.228;2022-08-21T06:48:07;4.17;;;3.87;;
317;SDS011;146;53.448;10.228;2022-08-21T06:50:36;5.10;;;4.70;;
317;SDS011;146;53.448;10.228;2022-08-21T06:53:05;4.20;;;3.80;;
317;SDS011;146;53.448;10.228;2022-08-21T06:55:33;4.63;;;4.23;;
317;SDS011;146;53.448;10.228;2022-08-21T06:58:01;4.40;;;4.00;;
317;SDS011;146;53.448;10.228;2022-08-21T07:00:29;4.37;;;4.03;;
317;SDS011;146;53.448;10.228;2022-08-21T07:05:31;5.20;;;4.70;;
317;SDS011;146;53.448;10.228;2022-08-21T07:08:00;4.37;;;3.97;;
317;SDS011;146;53.448;10.228;2022-08-21T07:10:26;4.27;;;3.97;;
317;SDS011;146;53.448;10.228;2022-08-21T07:12:54;4.93;;;4.53;;
317;SDS011;146;53.448;10.228;2022-08-21T07:15:21;5.20;;;4.80;;
317;SDS011;146;53.448;10.228;2022-08-21T07:17:48;3.90;;;3.53;;
317;SDS011;146;53.448;10.228;2022-08-21T07:20:15;4.80;;;4.40;;
317;SDS011;146;53.448;10.228;2022-08-21T07:22:42;4.37;;;4.07;;
317;SDS011;146;53.448;10.228;2022-08-21T07:25:12;4.03;;;3.70;;
317;SDS011;146;53.448;10.228;2022-08-21T07:27:38;4.30;;;3.90;;
317;SDS011;146;53.448;10.228;2022-08-21T07:30:06;4.27;;;3.90;;
317;SDS011;146;53.448;10.228;2022-08-21T07:32:33;3.97;;;3.67;;
317;SDS011;146;53.448;10.228;2022-08-21T07:35:00;3.53;;;3.20;;
317;SDS011;146;53.448;10.228;2022-08-21T07:37:27;3.60;;;3.30;;
317;SDS011;146;53.448;10.228;2022-08-21T07:39:54;4.00;;;3.70;;
317;SDS011;146;53.448;10.228;2022-08-21T07:42:22;3.63;;;3.33;;
317;SDS011;146;53.448;10.228;2022-08-21T07:44:49;3.87;;;3.30;;
317;SDS011;146;53.448;10.228;2022-08-21T07:47:16;3.53;;;3.03;;
317;SDS011;146;53.448;10.228;2022-08-21T07:49:43;3.57;;;3.20;;
317;SDS011;146;53.448;10.228;2022-08-21T07:52:11;2.87;;;2.63;;
317;SDS011;146;53.448;10.228;2022-08-21T07:54:38;3.60;;;3.23;;
317;SDS011;146;53.448;10.228;2022-08-21T07:57:04;2.73;;;2.40;;
317;SDS011;146;53.448;10.228;2022-08-21T07:59:33;4.00;;;2.63;;
317;SDS011;146;53.448;10.228;2022-08-21T08:01:59;2.60;;;2.40;;
317;SDS011;146;53.448;10.228;2022-08-21T08:04:26;2.63;;;2.17;;
317;SDS011;146;53.448;10.228;2022-08-21T08:06:53;2.43;;;2.23;;
317;SDS011;146;53.448;10.228;2022-08-21T08:09:20;2.57;;;2.37;;
317;SDS011;146;53.448;10.228;2022-08-21T08:11:46;2.53;;;2.43;;
317;SDS011;146;53.448;10.228;2022-08-21T08:14:13;2.90;;;2.30;;
317;SDS011;146;53.448;10.228;2022-08-21T08:16:42;3.37;;;2.77;;
317;SDS011;146;53.448;10.228;2022-08-21T08:19:09;2.03;;;1.93;;
317;SDS011;146;53.448;10.228;2022-08-21T08:21:35;2.57;;;2.37;;
317;SDS011;146;53.448;10.228;2022-08-21T08:24:03;3.47;;;2.50;;
317;SDS011;146;53.448;10.228;2022-08-21T08:26:30;3.17;;;2.87;;
317;SDS011;146;53.448;10.228;2022-08-21T08:28:57;2.90;;;2.30;;
317;SDS011;146;53.448;10.228;2022-08-21T08:31:23;2.20;;;2.03;;
317;SDS011;146;53.448;10.228;2022-08-21T08:33:52;2.10;;;2.00;;
317;SDS011;146;53.448;10.228;2022-08-21T08:36:18;2.53;;;2.20;;
317;SDS011;146;53.448;10.228;2022-08-21T08:38:46;3.03;;;2.23;;
317;SDS011;146;53.448;10.228;2022-08-21T08:41:14;2.53;;;2.17;;
317;SDS011;146;53.448;10.228;2022-08-21T08:43:44;3.47;;;2.23;;
317;SDS011;146;53.448;10.228;2022-08-21T08:46:18;2.27;;;2.07;;
317;SDS011;146;53.448;10.228;2022-08-21T08:48:55;2.67;;;1.83;;
317;SDS011;146;53.448;10.228;2022-08-21T08:51:30;4.07;;;2.20;;
317;SDS011;146;53.448;10.228;2022-08-21T08:54:06;3.07;;;2.50;;
317;SDS011;146;53.448;10.228;2022-08-21T08:56:37;1.93;;;1.80;;
317;SDS011;146;53.448;10.228;2022-08-21T08:59:07;2.60;;;2.30;;
317;SDS011;146;53.448;10.228;2022-08-21T09:01:39;2.30;;;2.10;;
317;SDS011;146;53.448;10.228;2022-08-21T09:04:08;2.60;;;1.80;;
317;SDS011;146;53.448;10.228;2022-08-21T09:06:40;2.20;;;1.90;;
317;SDS011;146;53.448;10.228;2022-08-21T09:09:25;4.90;;;2.27;;
317;SDS011;146;53.448;10.228;2022-08-21T09:12:00;3.20;;;2.27;;
317;SDS011;146;53.448;10.228;2022-08-21T09:14:38;2.40;;;1.97;;
317;SDS011;146;53.448;10.228;2022-08-21T09:17:19;2.03;;;1.90;;
317;SDS011;146;53.448;10.228;2022-08-21T09:20:08;1.97;;;1.83;;
317;SDS011;146;53.448;10.228;2022-08-21T09:22:44;2.27;;;2.10;;
317;SDS011;146;53.448;10.228;2022-08-21T09:25:18;1.90;;;1.70;;
317;SDS011;146;53.448;10.228;2022-08-21T09:27:48;2.50;;;2.30;;
317;SDS011;146;53.448;10.228;2022-08-21T09:30:16;2.47;;;2.20;;
317;SDS011;146;53.448;10.228;2022-08-21T09:32:43;2.30;;;2.20;;
317;SDS011;146;53.448;10.228;2022-08-21T09:35:12;2.30;;;2.10;;
317;SDS011;146;53.448;10.228;2022-08-21T09:37:48;2.40;;;2.20;;
317;SDS011;146;53.448;10.228;2022-08-21T09:43:02;2.30;;;2.20;;
317;SDS011;146;53.448;10.228;2022-08-21T09:45:31;2.13;;;1.80;;
317;SDS011;146;53.448;10.228;2022-08-21T09:48:07;2.00;;;1.90;;
317;SDS011;146;53.448;10.228;2022-08-21T09:50:37;3.00;;;2.37;;
317;SDS011;146;53.448;10.228;2022-08-21T09:53:04;1.80;;;1.70;;
317;SDS011;146;53.448;10.228;2022-08-21T09:55:46;6.70;;;2.60;;
317;SDS011;146;53.448;10.228;2022-08-21T09:58:34;2.40;;;2.20;;
317;SDS011;146;53.448;10.228;2022-08-21T10:01:03;2.80;;;2.50;;
317;SDS011;146;53.448;10.228;2022-08-21T10:03:32;2.10;;;1.90;;
317;SDS011;146;53.448;10.228;2022-08-21T10:06:01;3.47;;;2.20;;
317;SDS011;146;53.448;10.228;2022-08-21T10:08:31;4.30;;;2.33;;
317;SDS011;146;53.448;10.228;2022-08-21T10:11:01;2.30;;;2.10;;
317;SDS011;146;53.448;10.228;2022-08-21T10:13:43;4.03;;;2.50;;
317;SDS011;146;53.448;10.228;2022-08-21T10:16:22;4.30;;;2.53;;
317;SDS011;146;53.448;10.228;2022-08-21T10:19:01;3.93;;;3.20;;
317;SDS011;146;53.448;10.228;2022-08-21T10:21:36;5.27;;;3.30;;
317;SDS011;146;53.448;10.228;2022-08-21T10:24:12;4.10;;;3.03;;
317;SDS011;146;53.448;10.228;2022-08-21T10:26:47;5.40;;;2.77;;
317;SDS011;146;53.448;10.228;2022-08-21T10:29:28;2.67;;;2.50;;
317;SDS011;146;53.448;10.228;2022-08-21T10:32:11;2.73;;;2.50;;
317;SDS011;146;53.448;10.228;2022-08-21T10:34:51;5.23;;;2.70;;
317;SDS011;146;53.448;10.228;2022-08-21T10:37:29;3.20;;;2.83;;
317;SDS011;146;53.448;10.228;2022-08-21T10:40:07;4.63;;;3.53;;
317;SDS011;146;53.448;10.228;2022-08-21T10:42:45;2.37;;;2.27;;
317;SDS011;146;53.448;10.228;2022-08-21T10:45:22;2.50;;;2.30;;
317;SDS011;146;53.448;10.228;2022-08-21T10:48:01;4.00;;;2.47;;
317;SDS011;146;53.448;10.228;2022-08-21T10:50:31;3.20;;;2.70;;
317;SDS011;146;53.448;10.228;2022-08-21T10:53:22;3.27;;;2.70;;
317;SDS011;146;53.448;10.228;2022-08-21T10:55:59;3.60;;;3.30;;
317;SDS011;146;53.448;10.228;2022-08-21T10:58:31;3.00;;;2.77;;
317;SDS011;146;53.448;10.228;2022-08-21T11:01:05;3.83;;;2.90;;
317;SDS011;146;53.448;10.228;2022-08-21T11:03:39;2.17;;;1.97;;
317;SDS011;146;53.448;10.228;2022-08-21T11:06:08;2.00;;;1.90;;
317;SDS011;146;53.448;10.228;2022-08-21T11:08:43;2.50;;;2.07;;
317;SDS011;146;53.448;10.228;2022-08-21T11:11:15;5.57;;;2.67;;
317;SDS011;146;53.448;10.228;2022-08-21T11:13:49;3.13;;;1.77;;
317;SDS011;146;53.448;10.228;2022-08-21T11:16:21;2.60;;;2.17;;
317;SDS011;146;53.448;10.228;2022-08-21T11:19:00;2.13;;;1.90;;
317;SDS011;146;53.448;10.228;2022-08-21T11:21:33;2.33;;;1.80;;
317;SDS011;146;53.448;10.228;2022-08-21T11:24:09;2.10;;;2.00;;
317;SDS011;146;53.448;10.228;2022-08-21T11:26:46;2.03;;;1.93;;
317;SDS011;146;53.448;10.228;2022-08-21T11:29:18;2.20;;;1.87;;
317;SDS011;146;53.448;10.228;2022-08-21T11:31:56;1.90;;;1.70;;
317;SDS011;146;53.448;10.228;2022-08-21T11:34:37;3.20;;;1.73;;
317;SDS011;146;53.448;10.228;2022-08-21T11:37:11;2.10;;;2.00;;
317;SDS011;146;53.448;10.228;2022-08-21T11:39:48;2.03;;;1.93;;
317;SDS011;146;53.448;10.228;2022-08-21T11:42:23;1.97;;;1.80;;
317;SDS011;146;53.448;10.228;2022-08-21T11:44:56;2.10;;;1.90;;
317;SDS011;146;53.448;10.228;2022-08-21T11:47:41;2.03;;;1.77;;
317;SDS011;146;53.448;10.228;2022-08-21T11:50:20;2.07;;;1.87;;
317;SDS011;146;53.448;10.228;2022-08-21T11:52:53;1.70;;;1.60;;
317;SDS011;146;53.448;10.228;2022-08-21T11:55:26;2.83;;;1.87;;
317;SDS011;146;53.448;10.228;2022-08-21T11:57:57;1.93;;;1.83;;
317;SDS011;146;53.448;10.228;2022-08-21T12:00:27;2.43;;;1.80;;
317;SDS011;146;53.448;10.228;2022-08-21T12:03:07;1.93;;;1.83;;
317;SDS011;146;53.448;10.228;2022-08-21T12:05:38;2.90;;;1.97;;
317;SDS011;146;53.448;10.228;2022-08-21T12:08:10;2.30;;;2.07;;
317;SDS011;146;53.448;10.228;2022-08-21T12:10:45;2.30;;;2.10;;
317;SDS011;146;53.448;10.228;2022-08-21T12:13:25;2.23;;;2.03;;
317;SDS011;146;53.448;10.228;2022-08-21T12:16:04;2.30;;;2.10;;
317;SDS011;146;53.448;10.228;2022-08-21T12:18:31;2.60;;;2.40;;
317;SDS011;146;53.448;10.228;2022-08-21T12:21:03;1.73;;;1.63;;
317;SDS011;146;53.448;10.228;2022-08-21T12:23:44;2.70;;;1.90;;
317;SDS011;146;53.448;10.228;2022-08-21T12:29:04;2.53;;;1.73;;
317;SDS011;146;53.448;10.228;2022-08-21T12:32:00;3.20;;;1.80;;
317;SDS011;146;53.448;10.228;2022-08-21T12:34:35;2.00;;;1.70;;
317;SDS011;146;53.448;10.228;2022-08-21T12:37:04;3.20;;;1.77;;
317;SDS011;146;53.448;10.228;2022-08-21T12:42:41;1.50;;;1.40;;
317;SDS011;146;53.448;10.228;2022-08-21T12:45:26;2.67;;;1.93;;
317;SDS011;146;53.448;10.228;2022-08-21T12:55:45;1.80;;;1.70;;
317;SDS011;146;53.448;10.228;2022-08-21T12:58:32;2.00;;;1.90;;
317;SDS011;146;53.448;10.228;2022-08-21T13:01:01;1.93;;;1.83;;
317;SDS011;146;53.448;10.228;2022-08-21T13:03:30;1.50;;;1.43;;
317;SDS011;146;53.448;10.228;2022-08-21T13:05:57;3.43;;;1.73;;
317;SDS011;146;53.448;10.228;2022-08-21T13:08:25;2.27;;;2.07;;
317;SDS011;146;53.448;10.228;2022-08-21T13:10:56;1.50;;;1.40;;
317;SDS011;146;53.448;10.228;2022-08-21T13:13:27;2.80;;;1.77;;
317;SDS011;146;53.448;10.228;2022-08-21T13:16:00;1.97;;;1.87;;
317;SDS011;146;53.448;10.228;2022-08-21T13:18:31;1.70;;;1.60;;
317;SDS011;146;53.448;10.228;2022-08-21T13:21:03;2.10;;;1.73;;
317;SDS011;146;53.448;10.228;2022-08-21T13:23:32;1.70;;;1.60;;
317;SDS011;146;53.448;10.228;2022-08-21T13:25:59;2.03;;;1.83;;
317;SDS011;146;53.448;10.228;2022-08-21T13:28:32;2.57;;;2.30;;
317;SDS011;146;53.448;10.228;2022-08-21T13:31:02;2.40;;;1.70;;
317;SDS011;146;53.448;10.228;2022-08-21T13:33:34;1.97;;;1.83;;
317;SDS011;146;53.448;10.228;2022-08-21T13:36:03;3.30;;;1.90;;
317;SDS011;146;53.448;10.228;2022-08-21T13:38:36;1.70;;;1.60;;
317;SDS011;146;53.448;10.228;2022-08-21T13:41:07;1.90;;;1.70;;
317;SDS011;146;53.448;10.228;2022-08-21T13:43:49;2.57;;;1.70;;
317;SDS011;146;53.448;10.228;2022-08-21T13:46:18;1.60;;;1.50;;
317;SDS011;146;53.448;10.228;2022-08-21T13:48:50;3.57;;;1.90;;
317;SDS011;146;53.448;10.228;2022-08-21T13:51:17;1.57;;;1.47;;
317;SDS011;146;53.448;10.228;2022-08-21T13:53:45;1.27;;;1.17;;
317;SDS011;146;53.448;10.228;2022-08-21T13:56:23;2.00;;;1.40;;
317;SDS011;146;53.448;10.228;2022-08-21T13:58:51;1.50;;;1.40;;
317;SDS011;146;53.448;10.228;2022-08-21T14:01:22;1.30;;;1.20;;
317;SDS011;146;53.448;10.228;2022-08-21T14:03:52;1.80;;;1.43;;
317;SDS011;146;53.448;10.228;2022-08-21T14:06:24;2.23;;;1.50;;
317;SDS011;146;53.448;10.228;2022-08-21T14:08:53;1.83;;;1.73;;
317;SDS011;146;53.448;10.228;2022-08-21T14:11:23;1.90;;;1.57;;
317;SDS011;146;53.448;10.228;2022-08-21T14:13:55;1.87;;;1.57;;
317;SDS011;146;53.448;10.228;2022-08-21T14:16:25;1.30;;;1.20;;
317;SDS011;146;53.448;10.228;2022-08-21T14:19:07;4.30;;;1.70;;
317;SDS011;146;53.448;10.228;2022-08-21T14:21:37;2.40;;;1.20;;
317;SDS011;146;53.448;10.228;2022-08-21T14:24:07;2.90;;;1.40;;
317;SDS011;146;53.448;10.228;2022-08-21T14:26:37;1.47;;;1.37;;
317;SDS011;146;53.448;10.228;2022-08-21T14:29:12;1.23;;;1.13;;
317;SDS011;146;53.448;10.228;2022-08-21T14:31:43;1.73;;;1.50;;
317;SDS011;146;53.448;10.228;2022-08-21T14:34:14;1.17;;;1.13;;
317;SDS011;146;53.448;10.228;2022-08-21T14:36:42;3.03;;;1.40;;
317;SDS011;146;53.448;10.228;2022-08-21T14:39:09;4.50;;;1.67;;
317;SDS011;146;53.448;10.228;2022-08-21T14:41:36;1.70;;;1.53;;
317;SDS011;146;53.448;10.228;2022-08-21T14:44:03;1.90;;;1.30;;
317;SDS011;146;53.448;10.228;2022-08-21T14:46:31;1.40;;;1.30;;
317;SDS011;146;53.448;10.228;2022-08-21T14:49:01;2.67;;;1.50;;
317;SDS011;146;53.448;10.228;2022-08-21T14:51:28;1.73;;;1.40;;
317;SDS011;146;53.448;10.228;2022-08-21T14:53:55;1.57;;;1.33;;
317;SDS011;146;53.448;10.228;2022-08-21T14:56:22;1.47;;;1.37;;
317;SDS011;146;53.448;10.228;2022-08-21T14:58:50;1.63;;;1.53;;
317;SDS011;146;53.448;10.228;2022-08-21T15:01:19;1.50;;;1.37;;
317;SDS011;146;53.448;10.228;2022-08-21T15:03:48;1.47;;;1.37;;
317;SDS011;146;53.448;10.228;2022-08-21T15:06:18;2.03;;;1.27;;
317;SDS011;146;53.448;10.228;2022-08-21T15:08:46;1.47;;;1.37;;
317;SDS011;146;53.448;10.228;2022-08-21T15:11:15;2.40;;;1.67;;
317;SDS011;146;53.448;10.228;2022-08-21T15:13:43;1.77;;;1.67;;
317;SDS011;146;53.448;10.228;2022-08-21T15:16:11;1.80;;;1.13;;
317;SDS011;146;53.448;10.228;2022-08-21T15:18:38;1.17;;;1.10;;
317;SDS011;146;53.448;10.228;2022-08-21T15:21:06;1.70;;;1.50;;
317;SDS011;146;53.448;10.228;2022-08-21T15:23:35;1.53;;;1.43;;
317;SDS011;146;53.448;10.228;2022-08-21T15:26:01;1.40;;;1.30;;
317;SDS011;146;53.448;10.228;2022-08-21T15:28:28;1.37;;;1.20;;
317;SDS011;146;53.448;10.228;2022-08-21T15:30:55;1.90;;;1.43;;
317;SDS011;146;53.448;10.228;2022-08-21T15:33:22;1.77;;;1.67;;
317;SDS011;146;53.448;10.228;2022-08-21T15:35:49;1.43;;;1.30;;
317;SDS011;146;53.448;10.228;2022-08-21T15:38:16;2.27;;;1.57;;
317;SDS011;146;53.448;10.228;2022-08-21T15:40:44;1.30;;;1.20;;
317;SDS011;146;53.448;10.228;2022-08-21T15:43:18;1.27;;;1.20;;
317;SDS011;146;53.448;10.228;2022-08-21T15:45:48;1.27;;;1.23;;
317;SDS011;146;53.448;10.228;2022-08-21T15:48:15;1.27;;;1.17;;
317;SDS011;146;53.448;10.228;2022-08-21T15:50:42;1.50;;;1.40;;
317;SDS011;146;53.448;10.228;2022-08-21T15:53:09;1.40;;;1.20;;
317;SDS011;146;53.448;10.228;2022-08-21T15:55:36;1.90;;;1.40;;
317;SDS011;146;53.448;10.228;2022-08-21T15:58:04;1.70;;;1.60;;
317;SDS011;146;53.448;10.228;2022-08-21T16:00:32;3.30;;;1.70;;
317;SDS011;146;53.448;10.228;2022-08-21T16:03:03;1.90;;;1.53;;
317;SDS011;146;53.448;10.228;2022-08-21T16:05:32;1.70;;;1.60;;